WIMM/MES METAR and TAF weather

Enter ICAO airport designator
Station Type Date Time Source
WIMM METAR 2022/01/18 08:00 UTC NOAA

WIMM 180800Z 28010KT 250V300 9999 BKN017 30/25 Q1009 NOSIG


Station Type Date Time Source
WIMM Decoded METAR 2022/01/18 08:00 UTC NOAA

Medan / Polonia, Indonesia (WIMM) 03-34N 098-41E 25M
Jan 18, 2022 - 03:00 AM EST / 2022.01.18 0800 UTC
Wind: from the W (280 degrees) at 12 MPH (10 KT) (direction variable):0
Visibility: greater than 7 mile(s):0
Sky conditions: mostly cloudy
Temperature: 86 F (30 C)
Heat index: 96.8 F (36.0 C):1
Dew Point: 77 F (25 C)
Relative Humidity: 74%
Pressure (altimeter): 29.80 in. Hg (1009 hPa)
ob: WIMM 180800Z 28010KT 250V300 9999 BKN017 30/25 Q1009 NOSIG
cycle: 8

Station Type Date Time Source
WIMM TAF 2022/01/18 06:09 UTC NOAA

TAF WIMM 180500Z 1806/1906 28010KT 9999 BKN017
BECMG 1812/1814 20004KT 4000 HZ

Example: see airport list